Time;durP1;ratioP1;P1;durP2;ratioP2;P2;SDS_P1;SDS_P2;PMS_P1;PMS_P2;Temp;Humidity;BMP_temperature;BMP_pressure;BME280_temperature;BME280_humidity;BME280_pressure;Samples;Min_cycle;Max_cycle;Signal;HPM_P1;HPM_P2
2022/03/10 00:01:40;;;;;;;41.75;19.67;;;;;;;0.87;59.89;102341.88;5023905;28;20060;-67
2022/03/10 00:04:06;;;;;;;47.35;20.73;;;;;;;0.70;60.85;102337.50;5040138;28;20068;-65
2022/03/10 00:06:31;;;;;;;46.97;20.95;;;;;;;0.80;60.73;102340.97;5042496;28;20049;-66
2022/03/10 00:08:57;;;;;;;43.58;19.50;;;;;;;0.70;61.47;102347.09;5040222;28;20041;-66
2022/03/10 00:11:23;;;;;;;41.03;19.42;;;;;;;0.80;60.59;102343.59;5041983;28;20048;-65
2022/03/10 00:13:49;;;;;;;43.38;18.98;;;;;;;0.93;59.20;102336.63;5040505;28;20040;-66
2022/03/10 00:16:37;;;;;;;47.83;19.80;;;;;;;0.93;59.22;102342.75;5042241;28;20056;-65
2022/03/10 00:19:03;;;;;;;41.15;18.73;;;;;;;0.90;59.21;102344.50;5040335;28;20760;-66
2022/03/10 00:21:28;;;;;;;42.65;17.55;;;;;;;0.89;58.88;102345.38;5041767;28;20114;-65
2022/03/10 00:23:54;;;;;;;40.15;17.05;;;;;;;0.88;58.85;102343.63;5041453;28;20094;-65
2022/03/10 00:26:20;;;;;;;38.08;16.40;;;;;;;1.02;58.83;102334.88;5041717;28;20062;-65
2022/03/10 00:28:46;;;;;;;43.83;18.05;;;;;;;1.09;59.13;102335.75;5041548;28;20060;-66
2022/03/10 00:31:11;;;;;;;37.00;16.35;;;;;;;1.33;57.67;102323.47;5023449;28;20049;-65
2022/03/10 00:33:37;;;;;;;36.78;17.42;;;;;;;1.23;57.98;102336.63;5041875;28;20053;-65
2022/03/10 00:36:02;;;;;;;42.40;17.48;;;;;;;0.87;59.23;102329.63;5039990;28;20465;-66
2022/03/10 00:38:28;;;;;;;42.40;18.83;;;;;;;0.87;60.16;102336.63;5040029;28;20557;-66
2022/03/10 00:40:53;;;;;;;38.15;17.30;;;;;;;0.88;59.30;102331.38;5023293;28;20147;-66
2022/03/10 00:43:18;;;;;;;32.53;16.25;;;;;;;0.97;59.39;102331.38;5041363;28;20820;-65
2022/03/10 00:45:44;;;;;;;39.63;15.88;;;;;;;1.07;58.41;102332.25;5040044;28;20226;-66
2022/03/10 00:48:10;;;;;;;34.33;15.73;;;;;;;1.09;57.95;102340.13;5039765;28;20041;-65
2022/03/10 00:50:35;;;;;;;34.13;15.85;;;;;;;1.11;57.86;102336.63;5041493;28;20052;-66
2022/03/10 00:53:01;;;;;;;34.35;16.17;;;;;;;1.12;57.52;102346.25;5040986;28;20033;-66
2022/03/10 00:55:27;;;;;;;33.38;15.65;;;;;;;1.13;58.21;102340.13;5022919;28;20128;-66
2022/03/10 00:57:52;;;;;;;35.50;16.02;;;;;;;1.14;58.39;102341.88;5041297;28;20110;-65
2022/03/10 01:00:18;;;;;;;35.92;14.60;;;;;;;1.15;57.98;102346.25;5039437;28;20044;-67
2022/03/10 01:02:44;;;;;;;31.88;15.68;;;;;;;1.06;58.17;102350.66;5040064;28;20048;-66
2022/03/10 01:05:10;;;;;;;32.97;15.63;;;;;;;1.01;58.24;102356.78;5041820;28;20048;-66
2022/03/10 01:07:36;;;;;;;34.00;16.33;;;;;;;1.10;57.76;102353.25;5041680;28;20053;-65
2022/03/10 01:10:06;;;;;;;33.35;15.95;;;;;;;1.15;57.96;102348.00;5040195;28;20056;-66
2022/03/10 01:12:33;;;;;;;34.03;16.23;;;;;;;0.89;59.00;102345.38;5023100;28;20051;-66
2022/03/10 01:14:59;;;;;;;38.35;17.38;;;;;;;0.93;58.67;102341.88;5024871;28;20037;-66
2022/03/10 01:17:25;;;;;;;37.20;16.88;;;;;;;0.88;58.34;102343.63;5046566;28;20068;-66
2022/03/10 01:19:51;;;;;;;36.40;16.77;;;;;;;0.92;58.26;102345.38;5043909;28;20037;-66
2022/03/10 01:22:17;;;;;;;33.95;15.77;;;;;;;0.92;57.90;102345.38;5026294;28;20044;-65
2022/03/10 01:24:43;;;;;;;36.78;16.55;;;;;;;0.80;58.38;102342.72;5027172;28;20045;-67
2022/03/10 01:27:10;;;;;;;33.95;16.90;;;;;;;0.65;59.58;102343.56;5009629;28;20056;-66
2022/03/10 01:29:36;;;;;;;36.60;17.38;;;;;;;0.76;59.40;102345.38;5027112;28;20041;-66
2022/03/10 01:32:01;;;;;;;34.50;17.60;;;;;;;0.79;58.98;102341.84;5008966;28;20046;-65
2022/03/10 01:34:27;;;;;;;36.30;17.10;;;;;;;0.84;58.91;102341.88;5027189;28;20033;-65
2022/03/10 01:36:52;;;;;;;44.97;18.27;;;;;;;0.76;59.30;102344.50;5026220;28;20041;-65
2022/03/10 01:39:18;;;;;;;31.77;15.93;;;;;;;0.74;59.27;102347.09;5024762;28;20030;-66
2022/03/10 01:41:45;;;;;;;35.85;16.80;;;;;;;0.65;59.66;102354.06;5024580;28;20037;-66
2022/03/10 01:44:13;;;;;;;35.35;16.30;;;;;;;0.73;59.08;102349.72;5024682;28;20080;-66
2022/03/10 01:46:39;;;;;;;38.10;16.52;;;;;;;0.82;59.15;102348.88;5007466;28;20069;-65
2022/03/10 01:49:05;;;;;;;39.92;14.98;;;;;;;1.37;57.05;102347.13;5024010;28;20983;-66
2022/03/10 01:51:32;;;;;;;40.83;17.02;;;;;;;1.65;56.16;102345.31;5024295;28;20041;-67
2022/03/10 01:53:58;;;;;;;33.42;14.40;;;;;;;1.68;56.03;102337.44;5024456;28;20091;-67
2022/03/10 01:56:24;;;;;;;31.23;14.73;;;;;;;1.79;55.75;102329.50;5025321;28;20483;-65
2022/03/10 01:58:52;;;;;;;33.72;15.77;;;;;;;1.84;55.29;102326.88;5028604;28;20055;-66
2022/03/10 02:01:18;;;;;;;36.17;15.73;;;;;;;1.70;56.08;102327.75;5044022;28;20051;-67
2022/03/10 02:03:43;;;;;;;32.90;15.90;;;;;;;1.38;57.42;102338.34;5045854;28;20029;-66
2022/03/10 02:06:10;;;;;;;39.40;17.10;;;;;;;0.98;58.43;102335.75;5043900;28;20044;-65
2022/03/10 02:11:22;;;;;;;43.85;17.40;;;;;;;0.90;58.96;102332.22;5043174;28;20142;-65
2022/03/10 02:13:47;;;;;;;38.28;16.20;;;;;;;0.86;59.01;102333.13;5026232;28;20038;-65
2022/03/10 02:18:58;;;;;;;37.63;16.75;;;;;;;0.83;58.41;102335.75;5044251;28;20504;-67
2022/03/10 02:21:25;;;;;;;37.38;16.48;;;;;;;0.80;58.40;102332.22;5028909;28;20487;-66
2022/03/10 02:23:50;;;;;;;33.05;14.70;;;;;;;0.83;58.35;102332.25;5024581;28;20045;-66
2022/03/10 02:26:16;;;;;;;40.50;17.33;;;;;;;0.87;58.22;102334.00;5023951;28;20041;-66
2022/03/10 02:28:45;;;;;;;35.38;16.80;;;;;;;0.85;58.45;102333.97;5006233;28;20095;-66
2022/03/10 02:31:11;;;;;;;40.25;18.10;;;;;;;0.81;58.52;102342.75;5024020;28;20041;-66
2022/03/10 02:33:38;;;;;;;32.33;15.45;;;;;;;0.75;59.04;102341.00;5023992;28;20505;-66
2022/03/10 02:36:04;;;;;;;34.75;16.25;;;;;;;0.69;58.49;102334.84;5024093;28;20034;-65
2022/03/10 02:38:30;;;;;;;34.20;15.63;;;;;;;0.78;58.71;102338.34;5023986;28;20038;-67
2022/03/10 02:40:56;;;;;;;39.20;18.17;;;;;;;0.77;58.26;102331.38;5023973;28;20439;-65
2022/03/10 02:43:23;;;;;;;33.20;15.50;;;;;;;0.73;58.83;102336.59;5022308;28;20047;-65
2022/03/10 02:45:49;;;;;;;33.10;15.35;;;;;;;0.81;58.30;102339.25;5022068;28;20060;-65
2022/03/10 02:48:15;;;;;;;39.08;15.80;;;;;;;0.67;58.89;102334.84;5021820;28;20037;-66
2022/03/10 02:50:42;;;;;;;34.75;17.33;;;;;;;0.65;58.84;102341.84;5021646;28;20503;-66
2022/03/10 02:53:09;;;;;;;36.67;16.98;;;;;;;0.65;58.91;102336.59;5023275;28;20109;-65
2022/03/10 02:55:34;;;;;;;35.30;17.63;;;;;;;0.53;59.22;102339.19;5023491;28;20223;-66
2022/03/10 02:58:00;;;;;;;31.95;15.27;;;;;;;0.61;59.04;102341.84;5021789;28;20038;-66
2022/03/10 03:00:26;;;;;;;32.28;15.70;;;;;;;0.44;59.22;102337.41;5021905;28;20046;-66
2022/03/10 03:02:52;;;;;;;49.30;18.95;;;;;;;0.45;59.35;102333.94;5021851;28;20088;-66
2022/03/10 03:05:17;;;;;;;33.42;15.68;;;;;;;0.51;58.55;102339.19;5023139;28;20148;-66
2022/03/10 03:07:44;;;;;;;32.88;16.08;;;;;;;0.39;59.45;102343.53;5023101;28;20076;-66
2022/03/10 03:10:11;;;;;;;38.25;17.23;;;;;;;0.34;59.71;102342.63;5023559;28;20037;-66
2022/03/10 03:13:04;;;;;;;38.15;16.98;;;;;;;0.34;60.32;102343.50;5024016;28;20037;-66
2022/03/10 03:15:29;;;;;;;32.88;16.27;;;;;;;0.32;60.45;102347.88;5023147;28;20426;-66
2022/03/10 03:17:55;;;;;;;39.22;18.27;;;;;;;0.20;60.16;102345.19;5022746;28;20041;-66
2022/03/10 03:20:21;;;;;;;39.53;16.85;;;;;;;0.14;60.87;102342.56;5023294;28;20057;-66
2022/03/10 03:22:47;;;;;;;40.67;18.30;;;;;;;-0.04;61.95;102352.13;5040945;28;20509;-66
2022/03/10 03:25:17;;;;;;;37.70;17.50;;;;;;;-0.09;62.49;102356.47;5042884;28;20049;-65
2022/03/10 03:27:43;;;;;;;42.45;18.67;;;;;;;-0.29;63.52;102353.72;5024749;28;20143;-66
2022/03/10 03:30:09;;;;;;;44.67;18.13;;;;;;;-0.30;63.22;102358.97;5024746;28;20043;-66
2022/03/10 03:32:35;;;;;;;42.13;17.95;;;;;;;-0.29;63.29;102345.00;5042724;28;20052;-67
2022/03/10 03:35:02;;;;;;;37.83;17.52;;;;;;;-0.39;63.82;102351.94;5043174;28;20041;-66
2022/03/10 03:37:27;;;;;;;40.80;18.20;;;;;;;-0.42;64.04;102349.28;5042202;28;20036;-66
2022/03/10 03:39:52;;;;;;;40.67;17.67;;;;;;;-0.40;63.59;102346.66;5040922;28;20047;-66
2022/03/10 03:42:18;;;;;;;40.90;18.85;;;;;;;-0.44;64.26;102344.91;5042689;28;20033;-66
2022/03/10 03:44:44;;;;;;;37.85;16.63;;;;;;;-0.67;65.31;102348.25;5040782;28;20561;-66
2022/03/10 03:47:09;;;;;;;35.03;16.77;;;;;;;-0.74;65.07;102353.44;5042528;28;20048;-65
2022/03/10 03:49:35;;;;;;;41.90;18.45;;;;;;;-0.94;65.58;102354.16;5042195;28;20037;-66
2022/03/10 03:52:00;;;;;;;36.28;17.70;;;;;;;-1.02;65.17;102355.81;5041059;28;20463;-66
2022/03/10 03:54:26;;;;;;;44.90;18.67;;;;;;;-0.80;64.94;102357.75;5040796;28;20044;-66
2022/03/10 03:56:51;;;;;;;37.67;17.67;;;;;;;-0.58;64.23;102361.41;5042528;28;20124;-66
2022/03/10 03:59:16;;;;;;;46.40;19.02;;;;;;;-0.53;63.78;102361.44;5042412;28;20037;-66
2022/03/10 04:01:42;;;;;;;42.45;18.17;;;;;;;-0.71;65.22;102356.06;5040463;28;20037;-66
2022/03/10 04:04:08;;;;;;;38.40;17.77;;;;;;;-0.80;65.06;102363.00;5040542;28;20049;-66
2022/03/10 04:06:33;;;;;;;41.90;18.52;;;;;;;-1.05;66.55;102363.66;5042451;28;20052;-66
2022/03/10 04:08:59;;;;;;;39.35;18.48;;;;;;;-1.19;67.21;102357.41;5042492;28;20136;-66
2022/03/10 04:11:24;;;;;;;37.25;16.77;;;;;;;-1.25;67.40;102355.63;5041204;28;20056;-66
2022/03/10 04:13:50;;;;;;;45.80;17.20;;;;;;;-1.19;66.40;102360.91;5042277;28;20033;-66
2022/03/10 04:16:15;;;;;;;44.50;17.88;;;;;;;-1.10;66.92;102360.13;5042672;28;20051;-66
2022/03/10 04:18:41;;;;;;;44.70;19.33;;;;;;;-1.17;67.34;102367.00;5042464;28;20207;-66
2022/03/10 04:21:07;;;;;;;39.25;18.95;;;;;;;-1.16;68.27;102371.38;5024148;28;20041;-66
2022/03/10 04:23:32;;;;;;;45.10;19.63;;;;;;;-1.17;67.91;102367.00;5042517;28;20087;-66
2022/03/10 04:25:58;;;;;;;41.05;19.65;;;;;;;-1.13;68.06;102365.31;5042218;28;20029;-66
2022/03/10 04:28:24;;;;;;;48.83;19.90;;;;;;;-1.18;67.85;102370.50;5042080;28;20569;-65
2022/03/10 04:30:50;;;;;;;47.97;20.75;;;;;;;-1.02;67.60;102381.13;5042342;28;20041;-66
2022/03/10 04:33:15;;;;;;;46.97;20.48;;;;;;;-1.07;68.48;102381.06;5042529;28;20049;-66
2022/03/10 04:35:41;;;;;;;41.25;18.75;;;;;;;-1.20;68.34;102376.59;5041064;28;20063;-66
2022/03/10 04:38:07;;;;;;;38.50;18.30;;;;;;;-1.20;68.29;102374.84;5040529;28;20033;-66
2022/03/10 04:40:33;;;;;;;46.55;19.90;;;;;;;-1.40;69.49;102384.25;5040668;28;20041;-66
2022/03/10 04:42:59;;;;;;;43.15;18.98;;;;;;;-1.39;69.22;102386.88;5041873;28;20573;-66
2022/03/10 04:45:24;;;;;;;41.33;19.05;;;;;;;-1.34;68.72;102376.44;5042022;28;20082;-66
2022/03/10 04:47:50;;;;;;;45.90;19.98;;;;;;;-1.28;68.91;102380.88;5040566;28;20041;-66
2022/03/10 04:50:16;;;;;;;47.42;20.42;;;;;;;-1.24;68.47;102388.75;5045404;28;20101;-66
2022/03/10 04:52:42;;;;;;;49.22;20.00;;;;;;;-1.39;68.81;102394.72;5045986;28;20060;-66
2022/03/10 04:55:12;;;;;;;42.40;18.25;;;;;;;-1.47;70.25;102398.09;5044476;28;20448;-66
2022/03/10 04:57:39;;;;;;;43.63;18.05;;;;;;;-1.55;70.42;102395.41;5027836;28;20051;-66
2022/03/10 05:00:10;;;;;;;46.75;20.98;;;;;;;-1.41;69.69;102388.56;5044069;28;20037;-65
2022/03/10 05:02:37;;;;;;;44.40;20.20;;;;;;;-1.32;68.62;102383.44;5044294;28;20047;-66
2022/03/10 05:05:03;;;;;;;46.95;19.67;;;;;;;-1.33;68.11;102391.28;5044537;28;20103;-66
2022/03/10 05:07:30;;;;;;;53.40;20.83;;;;;;;-1.24;68.11;102378.31;5027915;28;20532;-66
2022/03/10 05:09:56;;;;;;;48.15;20.55;;;;;;;-1.36;68.52;102381.66;5045988;28;20037;-66
2022/03/10 05:12:21;;;;;;;48.58;20.35;;;;;;;-1.29;68.64;102387.84;5027821;28;20067;-66
2022/03/10 05:14:46;;;;;;;48.92;20.48;;;;;;;-1.27;68.13;102383.50;5044269;28;20493;-66
2022/03/10 05:17:12;;;;;;;48.08;20.80;;;;;;;-1.44;69.17;102385.94;5045796;28;20044;-66
2022/03/10 05:19:37;;;;;;;45.83;19.48;;;;;;;-1.62;68.94;102389.22;5044052;28;20573;-66
2022/03/10 05:22:06;;;;;;;51.40;18.45;;;;;;;-1.74;69.11;102389.06;5040843;28;20055;-66
2022/03/10 05:24:31;;;;;;;49.97;19.98;;;;;;;-1.81;69.98;102389.84;5044598;28;20041;-66
2022/03/10 05:26:58;;;;;;;49.97;19.50;;;;;;;-1.86;70.81;102389.81;5043971;28;20083;-66
2022/03/10 05:29:24;;;;;;;46.20;20.17;;;;;;;-1.86;71.20;102407.19;5046255;28;20534;-66
2022/03/10 05:31:49;;;;;;;50.05;20.38;;;;;;;-1.99;71.77;102411.41;5043625;28;20057;-66
2022/03/10 05:34:15;;;;;;;52.35;20.48;;;;;;;-2.00;71.53;102414.88;5045717;28;20186;-66
2022/03/10 05:36:40;;;;;;;50.15;21.73;;;;;;;-1.83;71.12;102405.50;5045561;28;20681;-66
2022/03/10 05:39:06;;;;;;;58.72;21.98;;;;;;;-1.70;70.44;102395.22;5043854;28;20071;-66
2022/03/10 05:41:33;;;;;;;47.45;20.23;;;;;;;-1.60;69.48;102391.88;5043649;28;20052;-65
2022/03/10 05:43:59;;;;;;;45.40;21.13;;;;;;;-1.62;69.95;102390.94;5045628;28;20045;-66
2022/03/10 05:46:24;;;;;;;49.55;23.33;;;;;;;-1.54;69.21;102396.28;5043138;28;20043;-66
2022/03/10 05:48:50;;;;;;;51.00;23.08;;;;;;;-1.41;68.68;102400.78;5044573;28;20029;-66
2022/03/10 05:51:16;;;;;;;50.53;22.23;;;;;;;-1.52;69.41;102391.94;5026271;28;20470;-65
2022/03/10 05:53:41;;;;;;;49.70;22.98;;;;;;;-1.50;68.57;102398.09;5042478;28;20047;-65
2022/03/10 05:56:07;;;;;;;56.75;21.50;;;;;;;-1.57;69.28;102394.50;5042558;28;20041;-66
2022/03/10 05:58:32;;;;;;;52.78;22.05;;;;;;;-1.46;68.81;102392.00;5025503;28;20486;-66
2022/03/10 06:00:58;;;;;;;49.33;21.55;;;;;;;-1.47;68.86;102393.75;5023283;28;20045;-66
2022/03/10 06:03:23;;;;;;;49.58;22.23;;;;;;;-1.44;68.71;102392.91;5022895;28;20037;-66
2022/03/10 06:05:49;;;;;;;50.03;20.60;;;;;;;-1.43;68.30;102395.53;5024287;28;20116;-66
2022/03/10 06:08:14;;;;;;;44.25;21.02;;;;;;;-1.50;68.59;102401.56;5023977;28;20048;-65
2022/03/10 06:10:40;;;;;;;50.50;20.60;;;;;;;-1.64;69.17;102403.13;5024148;28;20056;-66
2022/03/10 06:13:06;;;;;;;47.63;20.30;;;;;;;-1.66;69.13;102407.44;5025009;28;20256;-66
2022/03/10 06:15:31;;;;;;;53.85;20.88;;;;;;;-1.55;68.80;102413.72;5023241;28;20132;-66
2022/03/10 06:17:57;;;;;;;44.83;21.70;;;;;;;-1.42;68.11;102412.97;5006744;28;20035;-66
2022/03/10 06:20:22;;;;;;;48.53;21.00;;;;;;;-1.42;68.31;102412.97;5028216;28;20759;-66
2022/03/10 06:22:48;;;;;;;49.88;23.30;;;;;;;-1.41;68.56;102406.88;5025044;28;20116;-66
2022/03/10 06:25:13;;;;;;;46.60;21.67;;;;;;;-1.31;67.39;102405.25;5024956;28;20124;-66
2022/03/10 06:27:39;;;;;;;49.97;21.58;;;;;;;-1.43;68.84;102407.75;5024642;28;20033;-66
2022/03/10 06:30:04;;;;;;;40.88;18.98;;;;;;;-1.19;67.52;102418.47;5025030;28;20107;-66
2022/03/10 06:32:30;;;;;;;49.08;21.63;;;;;;;-1.10;67.35;102418.56;5022899;28;20054;-66
2022/03/10 06:34:59;;;;;;;47.67;20.77;;;;;;;-1.14;67.67;102415.91;5006558;28;20053;-66
2022/03/10 06:37:25;;;;;;;48.67;20.60;;;;;;;-1.02;67.07;102415.16;5023968;28;20037;-66
2022/03/10 06:39:52;;;;;;;48.95;21.67;;;;;;;-0.79;66.12;102414.50;5023989;28;20712;-66
2022/03/10 06:42:18;;;;;;;43.90;20.38;;;;;;;-0.74;65.64;102422.41;5023787;28;20146;-65
2022/03/10 06:44:43;;;;;;;42.28;20.45;;;;;;;-0.77;66.19;102419.75;5005174;28;20585;-66
2022/03/10 06:47:15;;;;;;;41.22;20.60;;;;;;;-0.50;65.99;102415.59;5023384;28;20506;-67
2022/03/10 06:49:40;;;;;;;49.50;20.15;;;;;;;-0.14;64.80;102420.22;5023535;28;20103;-66
2022/03/10 06:52:08;;;;;;;44.65;21.20;;;;;;;0.16;62.36;102423.03;5023492;28;20128;-66
2022/03/10 06:54:34;;;;;;;49.58;20.25;;;;;;;0.38;62.10;102424.00;5023456;28;20131;-66
2022/03/10 06:57:00;;;;;;;47.17;20.17;;;;;;;0.79;60.81;102428.50;5023629;28;20041;-66
2022/03/10 06:59:25;;;;;;;43.53;20.27;;;;;;;0.63;60.05;102438.06;5012465;28;20125;-65
2022/03/10 07:01:51;;;;;;;41.20;20.08;;;;;;;0.39;60.87;102443.22;5043099;28;20072;-65
2022/03/10 07:04:16;;;;;;;38.80;18.83;;;;;;;0.65;60.30;102444.22;5042632;28;20167;-65
2022/03/10 07:06:42;;;;;;;41.75;19.85;;;;;;;0.94;60.11;102446.03;5024397;28;20825;-65
2022/03/10 07:09:07;;;;;;;47.92;20.98;;;;;;;1.41;59.67;102440.88;5040572;28;20037;-65
2022/03/10 07:11:33;;;;;;;40.08;19.42;;;;;;;1.89;58.86;102440.81;5041706;28;20536;-66
2022/03/10 07:13:59;;;;;;;44.13;19.38;;;;;;;2.37;57.90;102431.94;5039684;28;20041;-65
2022/03/10 07:16:25;;;;;;;42.28;19.48;;;;;;;2.68;56.45;102431.78;5040694;28;20041;-65
2022/03/10 07:18:51;;;;;;;36.53;18.15;;;;;;;2.91;55.89;102427.25;5042098;28;20052;-66
2022/03/10 07:21:18;;;;;;;38.58;18.95;;;;;;;2.50;55.03;102444.13;5026925;28;20579;-66
2022/03/10 07:23:43;;;;;;;38.22;19.80;;;;;;;3.05;54.85;102438.56;5020345;28;20055;-65
2022/03/10 07:26:10;;;;;;;36.35;18.85;;;;;;;3.73;52.61;102431.03;5020593;28;20065;-66
2022/03/10 07:28:35;;;;;;;39.13;18.75;;;;;;;4.19;50.96;102433.19;5022101;28;20041;-66
2022/03/10 07:31:01;;;;;;;45.47;19.17;;;;;;;4.15;51.35;102434.09;5020505;28;20152;-66
2022/03/10 07:33:27;;;;;;;37.72;20.48;;;;;;;4.97;48.82;102426.00;5021649;28;20657;-66
2022/03/10 07:35:52;;;;;;;41.97;19.55;;;;;;;5.35;48.49;102426.28;5021594;28;20041;-66
2022/03/10 07:38:17;;;;;;;39.28;19.38;;;;;;;5.41;49.04;102428.84;5021422;28;20044;-66
2022/03/10 07:40:43;;;;;;;41.65;18.85;;;;;;;4.79;51.35;102432.44;5019878;28;20045;-66
2022/03/10 07:43:09;;;;;;;35.63;18.95;;;;;;;5.68;48.50;102431.94;5019226;28;20042;-66
2022/03/10 07:45:34;;;;;;;41.47;19.25;;;;;;;6.16;49.30;102418.72;5021362;28;20803;-65
2022/03/10 07:48:01;;;;;;;39.22;19.33;;;;;;;5.86;49.10;102418.34;5019786;28;20600;-66
2022/03/10 07:50:26;;;;;;;35.85;18.92;;;;;;;5.99;51.57;102419.03;5021561;28;20129;-66
2022/03/10 07:52:51;;;;;;;38.83;18.38;;;;;;;6.33;50.78;102415.75;5019514;28;20683;-67
2022/03/10 07:55:18;;;;;;;42.75;20.58;;;;;;;6.71;50.53;102405.19;5019657;28;20076;-67
2022/03/10 07:57:44;;;;;;;35.55;18.20;;;;;;;6.87;49.01;102411.00;5019203;28;20037;-66
2022/03/10 08:00:10;;;;;;;36.67;18.40;;;;;;;6.92;49.40;102414.44;5034833;28;20040;-66
2022/03/10 08:02:37;;;;;;;38.50;19.42;;;;;;;6.89;50.05;102418.94;5036156;28;20173;-66
2022/03/10 08:05:03;;;;;;;44.63;19.85;;;;;;;7.22;49.15;102412.84;5038894;28;20488;-67
2022/03/10 08:07:32;;;;;;;36.17;17.85;;;;;;;7.22;46.94;102406.66;5040851;28;20118;-66
2022/03/10 08:09:59;;;;;;;37.15;18.20;;;;;;;7.22;46.41;102407.53;5041063;28;20402;-67
2022/03/10 08:12:29;;;;;;;38.15;18.25;;;;;;;7.22;46.98;102409.31;5039184;28;20047;-65
2022/03/10 08:14:55;;;;;;;36.38;17.65;;;;;;;7.67;47.13;102409.94;5039016;28;20064;-65
2022/03/10 08:17:21;;;;;;;32.25;16.98;;;;;;;7.74;45.75;102406.22;5040842;28;20047;-66
2022/03/10 08:19:46;;;;;;;37.08;19.23;;;;;;;7.62;45.56;102411.84;5039064;28;20044;-65
2022/03/10 08:22:14;;;;;;;30.45;15.98;;;;;;;7.57;44.32;102403.13;5038663;28;20075;-66
2022/03/10 08:24:41;;;;;;;34.00;16.77;;;;;;;7.43;44.22;102405.25;5038712;28;20701;-65
2022/03/10 08:27:07;;;;;;;28.92;15.75;;;;;;;7.65;44.47;102411.78;5040778;28;20097;-66
2022/03/10 08:29:33;;;;;;;28.67;15.45;;;;;;;7.41;42.72;102402.66;5022792;28;20123;-65
2022/03/10 08:31:58;;;;;;;29.85;15.18;;;;;;;7.43;42.80;102400.84;5039702;28;20048;-67
2022/03/10 08:34:25;;;;;;;32.67;14.93;;;;;;;7.71;42.35;102400.13;5040768;28;20073;-68
2022/03/10 08:36:51;;;;;;;31.73;15.23;;;;;;;7.58;43.22;102396.03;5040432;28;20098;-68
2022/03/10 08:39:17;;;;;;;33.08;15.27;;;;;;;7.48;42.41;102390.97;5040268;28;20045;-67
2022/03/10 08:41:44;;;;;;;31.77;15.80;;;;;;;7.66;43.64;102389.63;5040312;28;20128;-68
2022/03/10 08:44:10;;;;;;;47.92;24.08;;;;;;;7.77;43.02;102386.66;5040035;28;20128;-65
2022/03/10 08:46:36;;;;;;;36.30;18.60;;;;;;;7.81;41.56;102391.00;5039211;28;20051;-65
2022/03/10 08:49:01;;;;;;;33.20;15.70;;;;;;;7.93;41.46;102389.78;5040720;28;20048;-66
2022/03/10 08:51:27;;;;;;;30.27;14.93;;;;;;;8.09;41.93;102382.28;5040479;28;20648;-68
2022/03/10 08:53:52;;;;;;;31.25;16.27;;;;;;;8.03;41.48;102388.59;5040975;28;20049;-67
2022/03/10 08:56:18;;;;;;;33.72;17.10;;;;;;;8.14;41.98;102381.22;5039248;28;20067;-65
2022/03/10 08:58:43;;;;;;;32.72;16.63;;;;;;;8.01;41.21;102383.34;5040307;28;20859;-67
2022/03/10 09:01:09;;;;;;;30.00;16.13;;;;;;;8.03;41.30;102388.59;5039156;28;20528;-66
2022/03/10 09:03:34;;;;;;;32.83;15.85;;;;;;;8.03;40.45;102378.88;5039115;28;20079;-67
2022/03/10 09:06:00;;;;;;;37.83;14.90;;;;;;;8.39;40.84;102383.22;5040197;28;20499;-66
2022/03/10 09:08:26;;;;;;;33.17;16.33;;;;;;;8.45;40.93;102372.41;5040536;28;20052;-68
2022/03/10 09:10:51;;;;;;;35.83;18.17;;;;;;;8.48;40.65;102372.28;5038599;28;20080;-67
2022/03/10 09:13:17;;;;;;;32.15;15.90;;;;;;;8.66;41.48;102373.53;5039930;28;20055;-68
2022/03/10 09:15:45;;;;;;;29.75;16.25;;;;;;;9.03;41.40;102363.44;5040968;28;20052;-67
2022/03/10 09:18:12;;;;;;;35.35;16.45;;;;;;;8.99;40.77;102363.63;5040565;28;20116;-68
2022/03/10 09:20:38;;;;;;;37.10;17.30;;;;;;;8.87;40.76;102370.19;5039917;28;20047;-66
2022/03/10 09:23:03;;;;;;;33.13;16.38;;;;;;;8.97;40.52;102366.31;5040846;28;20037;-68
2022/03/10 09:25:29;;;;;;;32.35;16.35;;;;;;;8.85;40.97;102365.84;5041943;28;20090;-68
2022/03/10 09:27:54;;;;;;;33.22;16.50;;;;;;;8.87;40.85;102356.03;5007456;28;20075;-68
2022/03/10 09:30:20;;;;;;;34.92;16.13;;;;;;;9.00;40.33;102360.03;5042660;28;20048;-67
2022/03/10 09:32:45;;;;;;;32.05;16.90;;;;;;;9.09;40.51;102357.09;5041906;28;20136;-67
2022/03/10 09:35:13;;;;;;;31.65;16.10;;;;;;;9.09;40.41;102359.75;5041701;28;20071;-68
2022/03/10 09:37:39;;;;;;;33.25;15.82;;;;;;;9.27;41.60;102363.56;5043536;28;20048;-66
2022/03/10 09:40:05;;;;;;;30.92;16.73;;;;;;;9.32;39.44;102359.84;5044976;28;20068;-67
2022/03/10 09:42:32;;;;;;;42.25;17.15;;;;;;;9.49;40.04;102364.59;5043060;28;20041;-67
2022/03/10 09:45:04;;;;;;;32.92;17.85;;;;;;;9.66;39.12;102355.16;5042517;28;20036;-68
2022/03/10 09:47:30;;;;;;;35.10;16.15;;;;;;;10.21;39.97;102353.16;5044440;28;20040;-67
2022/03/10 09:49:56;;;;;;;40.55;17.50;;;;;;;10.15;39.17;102348.06;5044060;28;20056;-67
2022/03/10 09:52:22;;;;;;;35.05;17.90;;;;;;;10.02;38.60;102345.81;5043630;28;20045;-68
2022/03/10 09:54:48;;;;;;;33.70;17.60;;;;;;;10.39;39.66;102341.78;5043403;28;20036;-67
2022/03/10 09:57:16;;;;;;;35.38;18.17;;;;;;;10.36;38.99;102341.94;5032189;28;20045;-67
2022/03/10 09:59:52;;;;;;;32.78;17.35;;;;;;;10.35;38.71;102343.72;5023186;28;20041;-67
2022/03/10 10:02:18;;;;;;;33.50;16.80;;;;;;;10.36;39.46;102332.13;5023859;28;20080;-64
2022/03/10 10:04:44;;;;;;;26.98;15.77;;;;;;;10.28;38.67;102338.69;5023770;28;20037;-66
2022/03/10 10:07:11;;;;;;;39.13;18.10;;;;;;;10.46;38.97;102340.66;5023786;28;20500;-65
2022/03/10 10:09:45;;;;;;;36.72;17.08;;;;;;;10.81;39.96;102341.06;5023198;28;20041;-66
2022/03/10 10:12:11;;;;;;;36.83;18.27;;;;;;;10.94;39.49;102331.59;5022217;28;20037;-67
2022/03/10 10:14:47;;;;;;;33.15;16.70;;;;;;;10.68;37.86;102339.78;5023237;28;20865;-67
2022/03/10 10:17:13;;;;;;;36.40;17.05;;;;;;;10.80;38.73;102337.53;5023454;28;20053;-68
2022/03/10 10:19:40;;;;;;;33.15;16.35;;;;;;;10.99;37.53;102334.94;5022332;28;20073;-65
2022/03/10 10:22:16;;;;;;;43.05;16.73;;;;;;;11.16;38.34;102334.28;5043083;28;20037;-66
2022/03/10 10:24:49;;;;;;;38.78;17.17;;;;;;;11.41;38.04;102331.44;5042790;28;20066;-65
2022/03/10 10:27:17;;;;;;;36.95;16.88;;;;;;;11.33;37.72;102333.53;5042085;28;20037;-65
2022/03/10 10:29:51;;;;;;;30.90;15.82;;;;;;;11.47;38.19;102328.47;5040700;28;20048;-66
2022/03/10 10:32:29;;;;;;;35.97;17.70;;;;;;;11.11;37.37;102325.59;5024007;28;20049;-65
2022/03/10 10:34:58;;;;;;;32.60;16.70;;;;;;;11.66;38.69;102324.06;5040650;28;20044;-65
2022/03/10 10:37:24;;;;;;;36.85;17.15;;;;;;;11.68;38.10;102332.03;5040546;28;20071;-65
2022/03/10 10:39:56;;;;;;;37.75;15.90;;;;;;;11.62;37.61;102330.50;5043358;28;20052;-66
2022/03/10 10:42:35;;;;;;;34.45;17.30;;;;;;;11.98;38.02;102324.47;5042840;28;20135;-65
2022/03/10 10:45:21;;;;;;;30.00;16.88;;;;;;;11.60;36.46;102320.81;5042406;28;20842;-65
2022/03/10 10:48:00;;;;;;;35.78;17.00;;;;;;;11.87;36.54;102318.75;5042301;28;20052;-66
2022/03/10 10:50:28;;;;;;;31.63;16.83;;;;;;;12.08;37.97;102316.91;5041684;28;20037;-66
2022/03/10 10:52:54;;;;;;;31.48;15.98;;;;;;;12.19;36.71;102307.44;5040400;28;20045;-66
2022/03/10 10:55:19;;;;;;;31.70;15.38;;;;;;;11.74;37.42;102313.03;5041733;28;20033;-65
2022/03/10 10:57:45;;;;;;;32.80;15.85;;;;;;;12.30;37.68;102309.63;5039897;28;20044;-66
2022/03/10 11:00:12;;;;;;;31.92;17.05;;;;;;;12.46;36.70;102309.75;5042035;28;20045;-66
2022/03/10 11:02:42;;;;;;;31.55;17.17;;;;;;;12.77;37.13;102313.63;5041730;28;20061;-67
2022/03/10 11:05:11;;;;;;;39.22;18.35;;;;;;;12.79;36.80;102317.09;5042769;28;20041;-65
2022/03/10 11:07:39;;;;;;;34.75;17.70;;;;;;;12.59;36.83;102313.56;5040466;28;20044;-66
2022/03/10 11:10:07;;;;;;;39.80;18.65;;;;;;;12.76;35.91;102312.75;5040409;28;20132;-66
2022/03/10 11:12:34;;;;;;;38.17;17.25;;;;;;;12.81;36.19;102301.84;5042427;28;20163;-67
2022/03/10 11:15:00;;;;;;;33.90;16.30;;;;;;;12.27;36.04;102300.88;5041784;28;20037;-66
2022/03/10 11:17:27;;;;;;;34.85;17.20;;;;;;;12.16;36.12;102296.88;5041905;28;20099;-67